Time;durP1;ratioP1;P1;durP2;ratioP2;P2;SDS_P1;SDS_P2;PMS_P1;PMS_P2;Temp;Humidity;BMP_temperature;BMP_pressure;BME280_temperature;BME280_humidity;BME280_pressure;Samples;Min_cycle;Max_cycle;Signal;HPM_P1;HPM_P2
2023/11/05 00:00:41;;;;;;;13.45;1.75;;;9.00;99.90;;;;;;5011319;28;20462;-75
2023/11/05 00:03:07;;;;;;;14.10;1.58;;;9.00;99.90;;;;;;5028085;28;20216;-73
2023/11/05 00:05:32;;;;;;;9.00;1.27;;;9.00;99.90;;;;;;5027436;28;20025;-74
2023/11/05 00:07:58;;;;;;;8.25;1.25;;;9.00;99.90;;;;;;5008151;28;20030;-75
2023/11/05 00:10:23;;;;;;;9.77;2.65;;;9.10;99.90;;;;;;4991553;28;20510;-73
2023/11/05 00:12:49;;;;;;;9.82;1.40;;;9.10;99.90;;;;;;5011623;28;20040;-74
2023/11/05 00:15:15;;;;;;;11.13;1.20;;;9.10;99.90;;;;;;4991548;28;20110;-74
2023/11/05 00:17:41;;;;;;;14.73;2.05;;;9.10;99.90;;;;;;4991058;28;20037;-74
2023/11/05 00:20:09;;;;;;;8.13;1.92;;;9.10;99.90;;;;;;5008726;28;20395;-74
2023/11/05 00:22:35;;;;;;;14.38;2.35;;;9.20;99.90;;;;;;5028551;28;20029;-74
2023/11/05 00:25:01;;;;;;;10.75;2.42;;;9.20;99.90;;;;;;5009930;28;20026;-74
2023/11/05 00:27:27;;;;;;;12.32;1.35;;;9.20;99.90;;;;;;5011073;28;20043;-74
2023/11/05 00:29:54;;;;;;;13.30;1.00;;;9.10;99.90;;;;;;5009830;28;20041;-74
2023/11/05 00:32:20;;;;;;;7.78;1.25;;;9.10;99.90;;;;;;5010952;28;20038;-74
2023/11/05 00:34:45;;;;;;;9.23;1.50;;;9.10;99.90;;;;;;5008060;28;20521;-74
2023/11/05 00:37:11;;;;;;;9.02;0.95;;;9.00;99.90;;;;;;4993741;28;20045;-74
2023/11/05 00:39:36;;;;;;;10.85;1.25;;;9.00;99.90;;;;;;5010122;28;20057;-75
2023/11/05 00:42:02;;;;;;;5.97;1.63;;;9.00;99.90;;;;;;4999802;28;20049;-74
2023/11/05 00:44:27;;;;;;;9.93;1.23;;;9.00;99.90;;;;;;5008551;28;20049;-74
2023/11/05 00:46:53;;;;;;;9.07;1.23;;;9.10;99.90;;;;;;5008092;28;20042;-74
2023/11/05 00:49:19;;;;;;;11.80;1.35;;;9.00;99.90;;;;;;5014652;28;20037;-74
2023/11/05 00:51:44;;;;;;;11.05;1.50;;;9.00;99.90;;;;;;5002843;28;20057;-74
2023/11/05 00:54:10;;;;;;;11.88;1.88;;;9.00;99.90;;;;;;4991177;28;20109;-73
2023/11/05 00:56:35;;;;;;;14.23;2.13;;;9.00;99.90;;;;;;4994997;28;20041;-74
2023/11/05 00:59:02;;;;;;;13.73;2.78;;;9.00;99.90;;;;;;5003001;28;20044;-74
2023/11/05 01:01:28;;;;;;;14.35;1.33;;;9.00;99.90;;;;;;5021931;28;20483;-74
2023/11/05 01:03:53;;;;;;;13.65;1.40;;;9.00;99.90;;;;;;5015600;28;20060;-74
2023/11/05 01:06:19;;;;;;;9.45;1.13;;;9.00;99.90;;;;;;5002897;28;20429;-74
2023/11/05 01:08:45;;;;;;;14.65;1.35;;;9.00;99.90;;;;;;5009362;28;20043;-74
2023/11/05 01:11:11;;;;;;;16.00;2.78;;;9.10;99.90;;;;;;5009783;28;20033;-74
2023/11/05 01:13:36;;;;;;;8.82;1.60;;;9.10;99.90;;;;;;5010036;28;20487;-74
2023/11/05 01:16:02;;;;;;;16.15;2.00;;;9.20;99.90;;;;;;5016701;28;20505;-74
2023/11/05 01:18:28;;;;;;;11.57;1.33;;;9.20;99.90;;;;;;5025717;28;20056;-75
2023/11/05 01:20:56;;;;;;;15.65;3.35;;;9.30;99.90;;;;;;4995985;28;20042;-75
2023/11/05 01:23:21;;;;;;;10.95;1.63;;;9.30;99.90;;;;;;4990737;28;20030;-74
2023/11/05 01:25:47;;;;;;;4.93;1.20;;;9.30;99.90;;;;;;4997592;28;20038;-74
2023/11/05 01:28:12;;;;;;;11.15;1.25;;;9.30;99.90;;;;;;5009926;28;20033;-75
2023/11/05 01:30:38;;;;;;;12.18;1.30;;;9.40;99.90;;;;;;5007311;28;20088;-74
2023/11/05 01:33:04;;;;;;;5.63;1.23;;;9.40;99.90;;;;;;4999671;28;20042;-74
2023/11/05 01:35:29;;;;;;;13.05;1.35;;;9.30;99.90;;;;;;5018852;28;20493;-75
2023/11/05 05:46:26;;;;;;;8.77;1.40;;;9.60;99.90;;;;;;6117946;23;20663;31
2023/11/05 05:48:52;;;;;;;7.80;1.58;;;9.60;99.90;;;;;;5034780;28;20056;-76
2023/11/05 05:51:17;;;;;;;10.50;0.80;;;9.60;99.90;;;;;;5025906;28;20038;-76
2023/11/05 05:53:43;;;;;;;7.10;1.20;;;9.60;99.90;;;;;;5019789;28;20129;-76
2023/11/05 05:56:12;;;;;;;2.65;1.00;;;9.60;99.90;;;;;;5026453;28;20083;-75
2023/11/05 05:58:38;;;;;;;5.22;0.70;;;9.60;99.90;;;;;;5009426;28;20395;-75
2023/11/05 06:01:04;;;;;;;2.67;0.73;;;9.60;99.90;;;;;;5026709;28;20541;-77
2023/11/05 06:03:32;;;;;;;8.40;1.33;;;9.60;99.90;;;;;;5009732;28;20030;-76
2023/11/05 06:05:57;;;;;;;7.53;0.90;;;9.60;99.90;;;;;;5026493;28;20034;-76
2023/11/05 06:08:23;;;;;;;1.33;0.52;;;9.60;99.90;;;;;;5027261;28;20439;-76
2023/11/05 06:10:48;;;;;;;5.40;1.15;;;9.60;99.90;;;;;;5008811;28;20044;-76
2023/11/05 06:13:14;;;;;;;6.90;1.23;;;9.60;99.90;;;;;;5009093;28;20440;-77
2023/11/05 06:15:40;;;;;;;3.70;0.98;;;9.60;99.90;;;;;;5009692;28;20103;-77
2023/11/05 06:18:06;;;;;;;5.00;0.75;;;9.60;99.90;;;;;;5008075;28;20133;-76
2023/11/05 06:20:31;;;;;;;5.45;0.90;;;9.60;99.90;;;;;;5027245;28;20040;-77
2023/11/05 06:22:57;;;;;;;11.43;1.10;;;9.60;99.90;;;;;;5008387;28;20085;-77
2023/11/05 06:25:23;;;;;;;6.63;0.70;;;9.60;99.90;;;;;;5009743;28;20513;-76
2023/11/05 06:27:48;;;;;;;6.18;1.15;;;9.70;99.90;;;;;;5026202;28;20044;-79
2023/11/05 06:30:14;;;;;;;10.88;1.48;;;9.60;99.90;;;;;;5027503;28;20491;-75
2023/11/05 06:32:40;;;;;;;7.90;1.60;;;9.60;99.90;;;;;;5026986;28;20141;-76
2023/11/05 06:35:07;;;;;;;5.38;1.73;;;9.60;99.90;;;;;;5008141;28;20030;-76
2023/11/05 06:37:33;;;;;;;5.70;1.25;;;9.60;99.90;;;;;;5009334;28;20494;-76
2023/11/05 06:39:59;;;;;;;8.65;1.25;;;9.60;99.90;;;;;;5025774;28;20109;-76
2023/11/05 06:42:24;;;;;;;5.65;1.17;;;9.60;99.90;;;;;;5030212;28;20017;-76
2023/11/05 06:44:50;;;;;;;8.93;0.88;;;9.60;99.90;;;;;;5011593;28;20573;-76
2023/11/05 06:47:15;;;;;;;5.50;0.80;;;9.60;99.90;;;;;;5013046;28;20049;-77
2023/11/05 06:49:41;;;;;;;5.63;0.68;;;9.60;99.90;;;;;;5012596;28;20042;-76
2023/11/05 06:52:07;;;;;;;7.38;1.15;;;9.60;99.90;;;;;;5029262;28;20048;-77
2023/11/05 06:54:32;;;;;;;10.40;1.75;;;9.70;99.90;;;;;;5030350;28;20514;-76
2023/11/05 06:56:58;;;;;;;4.85;0.95;;;9.70;99.90;;;;;;5029432;28;20033;-76
2023/11/05 06:59:24;;;;;;;7.43;1.70;;;9.70;99.90;;;;;;5012500;28;20426;-76
2023/11/05 07:01:50;;;;;;;7.28;1.52;;;9.70;99.90;;;;;;5029207;28;20111;-76
2023/11/05 07:04:18;;;;;;;6.80;1.20;;;9.70;99.90;;;;;;5012611;28;20363;-76
2023/11/05 07:06:45;;;;;;;9.65;1.00;;;9.70;99.90;;;;;;5012786;28;20087;-76
2023/11/05 07:09:11;;;;;;;12.52;1.58;;;9.70;99.90;;;;;;5029560;28;20113;-76
2023/11/05 07:11:37;;;;;;;6.78;1.48;;;9.80;99.90;;;;;;5029973;28;20489;-76
2023/11/05 07:14:03;;;;;;;7.80;1.38;;;9.80;99.90;;;;;;5011528;28;20033;-76
2023/11/05 07:16:29;;;;;;;9.10;1.73;;;9.80;99.90;;;;;;5012283;28;20014;-76
2023/11/05 07:18:55;;;;;;;6.68;1.40;;;9.80;99.90;;;;;;5011372;28;20048;-76
2023/11/05 07:21:20;;;;;;;4.43;1.55;;;9.80;99.90;;;;;;5012715;28;20478;-76
2023/11/05 07:23:47;;;;;;;5.40;1.10;;;9.80;99.90;;;;;;5012843;28;20038;-75
2023/11/05 07:26:13;;;;;;;8.02;1.92;;;9.90;99.90;;;;;;5030972;28;20034;-75
2023/11/05 07:28:39;;;;;;;4.93;1.33;;;9.90;99.90;;;;;;5012073;28;20040;-78
2023/11/05 07:31:05;;;;;;;5.80;1.00;;;9.90;99.90;;;;;;5028953;28;20045;-75
2023/11/05 07:33:30;;;;;;;5.10;1.10;;;9.90;99.90;;;;;;5030197;28;20046;-77
2023/11/05 07:35:56;;;;;;;5.18;1.25;;;10.00;99.90;;;;;;5029004;28;20033;-77
2023/11/05 07:38:22;;;;;;;8.52;1.40;;;10.00;99.90;;;;;;5012046;28;20033;-75
2023/11/05 07:40:48;;;;;;;10.15;1.25;;;10.00;99.90;;;;;;5010758;28;20095;-76
2023/11/05 07:43:14;;;;;;;5.18;1.45;;;10.00;99.90;;;;;;5011665;28;20029;-75
2023/11/05 07:45:40;;;;;;;7.38;1.23;;;10.00;99.90;;;;;;5029819;28;20042;-75
2023/11/05 07:48:05;;;;;;;4.75;0.85;;;10.00;99.90;;;;;;5029174;28;20056;-76
2023/11/05 07:50:31;;;;;;;10.25;1.00;;;10.00;99.90;;;;;;5015297;28;20133;-76
2023/11/05 07:52:57;;;;;;;6.47;1.13;;;10.00;99.90;;;;;;5013162;28;20025;-76
2023/11/05 07:55:23;;;;;;;10.00;2.85;;;10.00;99.90;;;;;;5035235;28;20080;-78
2023/11/05 07:57:49;;;;;;;6.63;1.70;;;10.00;99.90;;;;;;5035296;28;20072;-76
2023/11/05 08:00:17;;;;;;;4.30;1.25;;;10.00;99.90;;;;;;5011115;28;20026;-76
2023/11/05 08:02:47;;;;;;;5.28;1.65;;;10.00;99.90;;;;;;5013705;28;20398;-78
2023/11/05 08:05:13;;;;;;;14.43;2.17;;;10.00;99.90;;;;;;5016243;28;20025;-77
2023/11/05 08:07:39;;;;;;;12.43;1.30;;;10.10;99.90;;;;;;5018822;28;20163;-76
2023/11/05 08:10:06;;;;;;;9.07;1.48;;;10.10;99.90;;;;;;5013741;28;20117;-76
2023/11/05 08:12:32;;;;;;;6.57;1.70;;;10.10;99.90;;;;;;5021409;28;20048;-78
2023/11/05 08:14:58;;;;;;;7.35;1.70;;;10.10;99.90;;;;;;5009530;28;20048;-76
2023/11/05 08:17:24;;;;;;;7.28;1.65;;;10.10;99.90;;;;;;5011313;28;20033;-76
2023/11/05 08:19:50;;;;;;;9.68;1.48;;;10.10;99.90;;;;;;5028036;28;20519;-76
2023/11/05 08:22:16;;;;;;;7.82;1.90;;;10.10;99.90;;;;;;5028388;28;20025;-77
2023/11/05 08:24:43;;;;;;;14.27;2.45;;;10.10;99.90;;;;;;5027809;28;20036;-76
2023/11/05 08:27:10;;;;;;;7.38;1.48;;;10.20;99.90;;;;;;5025148;28;20034;-76
2023/11/05 08:29:36;;;;;;;10.35;1.63;;;10.20;99.90;;;;;;5026728;28;20018;-77
2023/11/05 08:32:01;;;;;;;7.78;1.90;;;10.20;99.90;;;;;;5021869;28;20033;-76
2023/11/05 08:34:27;;;;;;;11.60;2.28;;;10.20;99.90;;;;;;5009750;28;20533;-76
2023/11/05 08:36:54;;;;;;;11.85;1.90;;;10.20;99.90;;;;;;5008829;28;20030;-77
2023/11/05 08:39:20;;;;;;;10.90;1.95;;;10.30;99.90;;;;;;5027639;28;20049;-76
2023/11/05 08:41:46;;;;;;;13.98;1.80;;;10.30;99.90;;;;;;5026305;28;20033;-76
2023/11/05 08:44:12;;;;;;;15.15;2.40;;;10.30;99.90;;;;;;5027275;28;20039;-77
2023/11/05 08:46:37;;;;;;;9.65;1.92;;;10.40;99.90;;;;;;5027082;28;20037;-76
2023/11/05 08:49:03;;;;;;;7.15;1.55;;;10.40;99.90;;;;;;5026322;28;20045;-77
2023/11/05 08:51:30;;;;;;;6.45;1.90;;;10.60;99.90;;;;;;5027270;28;20040;-76
2023/11/05 08:53:56;;;;;;;10.27;2.83;;;10.60;99.90;;;;;;5001692;28;20108;-76
2023/11/05 08:56:22;;;;;;;7.68;1.70;;;10.70;99.90;;;;;;4995059;28;20479;-76
2023/11/05 08:58:48;;;;;;;11.75;2.50;;;10.70;99.90;;;;;;5008600;28;20103;-75
2023/11/05 09:01:16;;;;;;;7.45;2.28;;;10.80;99.90;;;;;;5011171;28;20025;-75
2023/11/05 09:03:45;;;;;;;13.20;2.78;;;10.80;99.90;;;;;;5010064;28;20119;-76
2023/11/05 09:06:11;;;;;;;7.55;2.10;;;10.90;99.90;;;;;;5009929;28;20033;-76
2023/11/05 09:08:40;;;;;;;10.73;1.58;;;11.00;99.90;;;;;;5009570;28;20561;-77
2023/11/05 09:11:09;;;;;;;5.57;1.65;;;11.00;99.90;;;;;;5008076;28;20091;-76
2023/11/05 09:13:35;;;;;;;6.55;1.08;;;11.20;99.90;;;;;;5009441;28;20116;-76
2023/11/05 09:16:02;;;;;;;4.82;1.25;;;11.30;99.90;;;;;;5026222;28;20033;-76
2023/11/05 09:18:28;;;;;;;6.63;0.98;;;11.30;99.90;;;;;;5009105;28;20471;-76
2023/11/05 09:20:56;;;;;;;7.30;0.93;;;11.30;99.90;;;;;;5008058;28;20029;-77
2023/11/05 09:23:23;;;;;;;10.45;2.35;;;11.20;99.90;;;;;;5008826;28;20034;-76
2023/11/05 09:25:49;;;;;;;4.53;0.95;;;11.20;99.90;;;;;;5026318;28;20142;-76
2023/11/05 09:28:15;;;;;;;4.32;1.13;;;11.20;99.90;;;;;;5027838;28;20528;-76
2023/11/05 09:30:42;;;;;;;12.05;1.45;;;11.10;99.90;;;;;;5027633;28;20045;-77
2023/11/05 09:33:08;;;;;;;9.88;1.83;;;11.10;99.90;;;;;;5026336;28;20453;-76
2023/11/05 09:35:33;;;;;;;9.73;1.80;;;11.00;99.90;;;;;;5026804;28;20040;-76
2023/11/05 09:37:59;;;;;;;7.25;1.95;;;11.00;99.90;;;;;;5027080;28;20037;-76
2023/11/05 09:40:25;;;;;;;6.70;1.40;;;10.90;99.90;;;;;;5027625;28;20022;-76
2023/11/05 09:43:01;;;;;;;12.15;1.60;;;10.80;99.90;;;;;;5008789;28;20140;-76
2023/11/05 09:45:34;;;;;;;7.55;1.98;;;10.80;99.90;;;;;;5009828;28;20021;-77
2023/11/05 09:48:12;;;;;;;4.57;1.35;;;10.80;99.90;;;;;;5009033;28;20145;-76
2023/11/05 09:50:41;;;;;;;6.55;1.20;;;10.80;99.90;;;;;;5010201;28;20030;-76
2023/11/05 09:53:11;;;;;;;8.30;1.63;;;10.90;99.90;;;;;;5026861;28;20437;-77
2023/11/05 09:55:41;;;;;;;10.98;1.02;;;10.90;99.90;;;;;;5010381;28;20560;-74
2023/11/05 09:58:08;;;;;;;4.72;0.90;;;10.90;99.90;;;;;;5008864;28;20780;-76
2023/11/05 10:00:35;;;;;;;5.80;1.33;;;10.90;99.90;;;;;;5027596;28;20029;-75
2023/11/05 10:03:08;;;;;;;6.00;1.10;;;10.80;99.90;;;;;;5026594;28;20044;-75
2023/11/05 10:05:38;;;;;;;4.93;1.08;;;10.80;99.90;;;;;;5009600;28;20029;-78
2023/11/05 10:08:08;;;;;;;4.07;1.35;;;10.80;99.90;;;;;;5008504;28;20511;-76
2023/11/05 10:10:35;;;;;;;4.73;1.87;;;10.70;99.90;;;;;;5027843;28;20052;-78
2023/11/05 10:13:04;;;;;;;5.57;1.38;;;10.80;99.90;;;;;;5008923;28;20368;-76
2023/11/05 10:15:34;;;;;;;4.38;1.20;;;10.70;99.90;;;;;;5027869;28;20029;-76
2023/11/05 10:17:59;;;;;;;5.18;1.20;;;10.70;99.90;;;;;;5030274;28;20494;-76
2023/11/05 10:20:25;;;;;;;5.28;1.58;;;10.70;99.90;;;;;;5013110;28;20041;-76
2023/11/05 10:23:00;;;;;;;7.25;1.40;;;10.70;99.90;;;;;;5030488;28;20033;-77
2023/11/05 10:25:25;;;;;;;4.07;1.30;;;10.70;99.90;;;;;;5014102;28;20031;-76
2023/11/05 10:27:53;;;;;;;7.10;2.17;;;10.70;99.90;;;;;;5021135;28;20041;-76
2023/11/05 10:30:20;;;;;;;7.75;1.70;;;10.80;99.90;;;;;;5026305;28;20874;-77
2023/11/05 10:32:48;;;;;;;9.02;1.70;;;10.70;99.90;;;;;;5034555;28;20518;-77
2023/11/05 10:35:20;;;;;;;5.68;1.30;;;10.70;99.90;;;;;;5041752;28;20530;-77
2023/11/05 10:37:51;;;;;;;4.95;2.03;;;10.70;99.90;;;;;;5012731;28;20037;-76
2023/11/05 10:40:16;;;;;;;5.63;1.27;;;10.80;99.90;;;;;;5018100;28;20041;-76
2023/11/05 10:42:49;;;;;;;6.00;1.40;;;10.80;99.90;;;;;;5015699;28;20041;-76
2023/11/05 10:45:17;;;;;;;4.70;0.70;;;10.90;99.90;;;;;;5011422;28;20029;-75
2023/11/05 10:47:45;;;;;;;3.00;0.70;;;10.80;99.90;;;;;;5018402;28;20198;-75
2023/11/05 10:50:17;;;;;;;3.30;0.77;;;10.90;99.90;;;;;;5031873;28;20036;-76
2023/11/05 10:52:44;;;;;;;5.55;0.45;;;10.90;99.90;;;;;;5009023;28;20037;-76
2023/11/05 10:55:11;;;;;;;6.07;0.50;;;10.80;99.90;;;;;;5029449;28;20044;-76
2023/11/05 10:57:47;;;;;;;5.68;1.58;;;10.70;99.90;;;;;;5014884;28;20531;-77
2023/11/05 11:00:15;;;;;;;3.17;0.82;;;10.80;99.90;;;;;;5025300;28;20024;-77
2023/11/05 11:02:45;;;;;;;5.80;0.50;;;10.80;99.90;;;;;;5015714;28;20034;-77
2023/11/05 11:05:14;;;;;;;6.40;0.60;;;10.80;99.90;;;;;;5031273;28;20041;-77
2023/11/05 11:07:40;;;;;;;3.07;0.60;;;10.90;99.90;;;;;;5019060;28;20044;-79
2023/11/05 11:10:09;;;;;;;4.75;1.40;;;10.90;99.90;;;;;;5037530;28;20529;-76
2023/11/05 11:12:37;;;;;;;5.65;1.00;;;11.10;99.90;;;;;;5017949;28;20071;-76
2023/11/05 11:15:07;;;;;;;6.03;1.63;;;11.30;99.90;;;;;;5015518;28;20124;-78
2023/11/05 11:17:34;;;;;;;2.03;0.73;;;11.40;99.90;;;;;;5033467;28;20033;-76
2023/11/05 11:20:09;;;;;;;3.75;0.90;;;11.50;99.90;;;;;;5029300;28;20455;-77
2023/11/05 11:22:43;;;;;;;7.93;1.25;;;11.60;99.90;;;;;;5013808;28;20048;-77
2023/11/05 11:25:11;;;;;;;3.88;0.90;;;11.70;99.90;;;;;;5015556;28;20033;-78
2023/11/05 11:27:40;;;;;;;7.35;1.20;;;11.90;99.90;;;;;;5031501;28;20064;-77
2023/11/05 11:30:10;;;;;;;3.28;0.70;;;11.90;99.90;;;;;;5018966;28;20141;-78
2023/11/05 11:32:38;;;;;;;3.38;0.82;;;11.90;99.90;;;;;;5031899;28;20086;-77
2023/11/05 11:35:08;;;;;;;2.92;0.85;;;12.00;99.90;;;;;;5027624;28;20045;-77
2023/11/05 11:37:37;;;;;;;5.32;1.10;;;12.00;99.90;;;;;;5039940;28;20128;-77
2023/11/05 11:40:17;;;;;;;5.35;1.00;;;11.90;99.90;;;;;;5029865;28;20030;-77
2023/11/05 11:42:43;;;;;;;2.58;0.90;;;11.80;99.90;;;;;;5041812;28;20037;-76
2023/11/05 11:45:10;;;;;;;5.25;0.98;;;11.80;99.90;;;;;;5009728;28;20051;-75
2023/11/05 11:47:36;;;;;;;1.95;0.80;;;11.70;99.90;;;;;;5028429;28;20060;-75
2023/11/05 11:50:05;;;;;;;4.22;1.08;;;11.70;99.90;;;;;;5026559;28;20394;-76
2023/11/05 11:52:44;;;;;;;2.70;0.98;;;11.60;99.90;;;;;;5011721;28;20036;-75
2023/11/05 11:55:09;;;;;;;4.88;1.00;;;11.60;99.90;;;;;;5025222;28;20033;-77
2023/11/05 11:57:36;;;;;;;4.57;1.25;;;11.50;99.90;;;;;;5016843;28;20080;-76
2023/11/05 12:00:03;;;;;;;4.63;0.88;;;11.50;99.90;;;;;;5030529;28;20038;-77
2023/11/05 12:02:29;;;;;;;7.72;1.35;;;11.50;99.90;;;;;;5014789;28;20037;-77
2023/11/05 12:04:57;;;;;;;5.63;1.10;;;11.60;99.90;;;;;;5029896;28;20030;-77
2023/11/05 12:07:22;;;;;;;10.15;0.77;;;11.50;99.90;;;;;;5029576;28;20398;-75
2023/11/05 12:09:48;;;;;;;2.75;0.90;;;11.60;99.90;;;;;;5027931;28;20121;-75
2023/11/05 12:12:18;;;;;;;4.35;1.23;;;11.60;99.90;;;;;;5011386;28;20127;-76
2023/11/05 12:14:44;;;;;;;4.10;1.00;;;11.60;99.90;;;;;;5011596;28;20051;-76
2023/11/05 12:17:10;;;;;;;8.65;0.95;;;11.50;99.90;;;;;;5009973;28;20033;-75
2023/11/05 12:19:35;;;;;;;7.07;2.17;;;11.50;99.90;;;;;;5029908;28;20026;-74
2023/11/05 12:22:02;;;;;;;6.25;1.27;;;11.40;99.90;;;;;;5028710;28;20561;-77
2023/11/05 12:24:28;;;;;;;6.07;1.10;;;11.40;99.90;;;;;;5029114;28;20530;-77
2023/11/05 12:26:54;;;;;;;4.03;1.02;;;11.30;99.90;;;;;;5010866;28;20041;-76
2023/11/05 12:29:20;;;;;;;7.13;0.85;;;11.30;99.90;;;;;;5030297;28;20026;-77
2023/11/05 12:31:46;;;;;;;7.10;1.95;;;11.30;99.90;;;;;;5031488;28;20083;-75
2023/11/05 12:34:12;;;;;;;4.93;1.63;;;11.30;99.90;;;;;;5031365;28;20030;-79
2023/11/05 12:36:37;;;;;;;5.07;1.20;;;11.30;99.90;;;;;;5031373;28;20052;-76
2023/11/05 12:39:03;;;;;;;4.93;0.70;;;11.20;99.90;;;;;;5029545;28;20026;-77
2023/11/05 12:41:30;;;;;;;5.18;1.33;;;11.20;99.90;;;;;;5028768;28;20394;-76
2023/11/05 12:43:56;;;;;;;4.32;1.25;;;11.20;99.90;;;;;;5008849;28;20088;-75
2023/11/05 12:46:22;;;;;;;7.15;1.35;;;11.20;99.90;;;;;;5010188;28;20030;-77
2023/11/05 12:48:49;;;;;;;3.95;1.40;;;11.30;99.90;;;;;;5008916;28;20042;-75
2023/11/05 12:51:15;;;;;;;4.88;0.80;;;11.50;99.90;;;;;;5009744;28;20121;-76
2023/11/05 12:53:40;;;;;;;5.70;0.60;;;11.40;99.90;;;;;;5027289;28;20033;-74
2023/11/05 12:56:10;;;;;;;2.35;0.52;;;11.40;99.90;;;;;;5026408;28;20048;-75
2023/11/05 12:58:38;;;;;;;1.65;0.40;;;11.40;99.90;;;;;;4990484;28;20123;-74
2023/11/05 13:01:05;;;;;;;4.43;1.02;;;11.40;99.90;;;;;;5018097;28;20076;-73
2023/11/05 13:03:31;;;;;;;11.07;2.65;;;11.40;99.90;;;;;;5028505;28;20056;-75
2023/11/05 13:05:57;;;;;;;6.90;1.30;;;11.30;99.90;;;;;;5029602;28;20041;-74
2023/11/05 13:08:24;;;;;;;8.80;1.15;;;11.30;99.90;;;;;;5011654;28;20037;-75
2023/11/05 13:10:49;;;;;;;7.60;1.67;;;11.30;99.90;;;;;;5026890;28;20040;-74
2023/11/05 13:13:16;;;;;;;2.92;0.47;;;11.30;99.90;;;;;;5010081;28;20038;-75
2023/11/05 13:15:41;;;;;;;4.68;0.90;;;11.30;99.90;;;;;;5009178;28;20063;-75
2023/11/05 13:18:07;;;;;;;6.68;0.60;;;11.30;99.90;;;;;;5025969;28;20475;-75
2023/11/05 13:20:33;;;;;;;6.75;1.10;;;11.30;99.90;;;;;;5026569;28;20052;-75
2023/11/05 13:23:03;;;;;;;3.42;0.50;;;11.30;99.90;;;;;;5026029;28;20037;-76
2023/11/05 13:25:29;;;;;;;8.00;0.82;;;11.30;99.90;;;;;;5026507;28;20402;-74
2023/11/05 13:27:54;;;;;;;4.55;0.60;;;11.30;99.90;;;;;;5026196;28;20101;-76
2023/11/05 13:30:22;;;;;;;6.47;1.13;;;11.30;99.90;;;;;;5026726;28;20483;-75
2023/11/05 13:32:47;;;;;;;3.28;0.90;;;11.30;99.90;;;;;;5026191;28;20128;-75
2023/11/05 13:35:17;;;;;;;7.13;0.95;;;11.30;99.90;;;;;;5026487;28;20481;-75
2023/11/05 13:37:43;;;;;;;5.63;0.60;;;11.30;99.90;;;;;;5026945;28;20118;-74
2023/11/05 13:40:09;;;;;;;4.22;1.17;;;11.20;99.90;;;;;;5007884;28;20614;-73
2023/11/05 13:42:37;;;;;;;7.10;1.17;;;11.20;99.90;;;;;;5026773;28;20045;-75
2023/11/05 13:45:08;;;;;;;4.15;0.70;;;11.20;99.90;;;;;;5018900;28;20038;-75
2023/11/05 13:47:34;;;;;;;3.35;0.80;;;11.10;99.90;;;;;;5030766;28;20041;-76
2023/11/05 13:49:59;;;;;;;8.18;1.23;;;11.20;99.90;;;;;;5007217;28;20041;-75
2023/11/05 13:52:25;;;;;;;9.52;1.10;;;11.10;99.90;;;;;;5027403;28;20037;-75
2023/11/05 13:54:50;;;;;;;7.50;1.00;;;11.10;99.90;;;;;;5010312;28;20034;-75
2023/11/05 13:57:16;;;;;;;7.35;1.75;;;11.10;99.90;;;;;;5012960;28;20116;-74
2023/11/05 13:59:45;;;;;;;12.85;2.45;;;11.10;99.90;;;;;;5039810;28;20045;-75
2023/11/05 14:02:11;;;;;;;5.60;0.80;;;11.10;99.90;;;;;;5029291;28;20193;-76
2023/11/05 14:04:36;;;;;;;4.90;1.15;;;11.10;99.90;;;;;;5013658;28;20142;-76
2023/11/05 14:07:02;;;;;;;16.00;2.10;;;11.10;99.90;;;;;;5028952;28;20049;-74
2023/11/05 14:09:30;;;;;;;5.95;1.35;;;11.00;99.90;;;;;;5010025;28;20045;-75
2023/11/05 14:12:02;;;;;;;8.43;1.40;;;11.00;99.90;;;;;;5008319;28;20384;-74
2023/11/05 14:14:28;;;;;;;6.50;1.02;;;11.10;99.90;;;;;;5027619;28;20124;-74
2023/11/05 14:16:54;;;;;;;10.15;1.30;;;11.00;99.90;;;;;;5027075;28;20034;-75
2023/11/05 14:19:20;;;;;;;9.95;0.70;;;11.00;99.90;;;;;;5028013;28;20034;-77
2023/11/05 14:21:46;;;;;;;4.28;0.82;;;11.00;99.90;;;;;;5028073;28;20049;-76
2023/11/05 14:24:11;;;;;;;12.63;0.85;;;11.00;99.90;;;;;;5010175;28;20116;-75
2023/11/05 14:26:37;;;;;;;7.85;0.70;;;10.90;99.90;;;;;;5027712;28;20040;-74
2023/11/05 14:29:03;;;;;;;6.75;1.00;;;10.90;99.90;;;;;;5027257;28;20033;-76
2023/11/05 14:31:29;;;;;;;6.18;1.10;;;10.90;99.90;;;;;;5010174;28;20514;-75
2023/11/05 14:33:57;;;;;;;4.05;1.50;;;10.90;99.90;;;;;;5009594;28;20119;-74
2023/11/05 14:36:23;;;;;;;6.50;0.73;;;10.90;99.90;;;;;;5027702;28;20037;-75
2023/11/05 14:38:49;;;;;;;4.15;1.05;;;10.90;99.90;;;;;;5042149;28;20040;-75
2023/11/05 14:41:14;;;;;;;5.13;0.90;;;10.90;99.90;;;;;;5037951;28;20125;-74
2023/11/05 14:43:40;;;;;;;5.20;0.82;;;10.80;99.90;;;;;;5029276;28;20739;-75
2023/11/05 14:46:06;;;;;;;7.95;1.27;;;10.80;99.90;;;;;;5030176;28;20041;-76
2023/11/05 14:48:32;;;;;;;5.63;1.98;;;10.80;99.90;;;;;;5028802;28;20060;-75
2023/11/05 14:50:58;;;;;;;3.70;0.98;;;10.80;99.90;;;;;;5027174;28;20041;-75
2023/11/05 14:53:25;;;;;;;4.55;0.85;;;10.80;99.90;;;;;;5020837;28;20049;-75
2023/11/05 14:55:51;;;;;;;9.77;1.55;;;10.80;99.90;;;;;;4990038;28;20064;-75
2023/11/05 14:58:19;;;;;;;7.22;1.45;;;10.70;99.90;;;;;;5027736;28;20041;-75
2023/11/05 15:00:46;;;;;;;13.13;1.15;;;10.80;99.90;;;;;;5042267;28;20052;-76
2023/11/05 15:03:11;;;;;;;3.38;1.00;;;10.70;99.90;;;;;;5011919;28;20671;-76
2023/11/05 15:05:37;;;;;;;5.88;1.77;;;10.70;99.90;;;;;;5031351;28;20128;-77
2023/11/05 15:08:03;;;;;;;5.63;1.08;;;10.70;99.90;;;;;;5006724;28;20029;-75
2023/11/05 15:10:29;;;;;;;7.50;1.13;;;10.70;99.90;;;;;;5029371;28;20125;-76
2023/11/05 15:12:55;;;;;;;8.80;1.70;;;10.70;99.90;;;;;;5027735;28;20059;-76
2023/11/05 15:15:20;;;;;;;10.13;1.00;;;10.70;99.90;;;;;;5015820;28;20033;-74
2023/11/05 15:17:46;;;;;;;3.58;1.05;;;10.70;99.90;;;;;;5028753;28;20036;-75
2023/11/05 15:20:12;;;;;;;4.97;0.90;;;10.70;99.90;;;;;;5020182;28;20032;-74
2023/11/05 15:22:41;;;;;;;8.18;0.95;;;10.70;99.90;;;;;;5016249;28;20033;-74
2023/11/05 15:25:07;;;;;;;5.90;1.10;;;10.60;99.90;;;;;;5027314;28;20064;-75
2023/11/05 15:27:33;;;;;;;6.57;1.00;;;10.70;99.90;;;;;;5014469;28;20025;-76
2023/11/05 15:29:59;;;;;;;6.68;1.00;;;10.60;99.90;;;;;;5027899;28;20044;-75
2023/11/05 15:32:24;;;;;;;4.18;0.68;;;10.70;99.90;;;;;;5029232;28;20100;-75
2023/11/05 15:34:50;;;;;;;11.07;1.17;;;10.70;99.90;;;;;;5033999;28;20057;-75
2023/11/05 15:37:17;;;;;;;4.47;0.95;;;10.70;99.90;;;;;;5023097;28;20364;-75
2023/11/05 15:39:43;;;;;;;7.70;1.25;;;10.70;99.90;;;;;;5017512;28;20076;-75
2023/11/05 15:42:08;;;;;;;4.38;1.38;;;10.70;99.90;;;;;;5027055;28;20057;-74
2023/11/05 15:44:34;;;;;;;7.07;1.30;;;10.70;99.90;;;;;;5014433;28;20025;-76
2023/11/05 15:46:59;;;;;;;10.63;2.17;;;10.70;99.90;;;;;;5026712;28;20041;-74
2023/11/05 15:49:27;;;;;;;7.18;1.60;;;10.70;99.90;;;;;;5018502;28;20109;-76
2023/11/05 15:51:53;;;;;;;11.13;2.03;;;10.70;99.90;;;;;;5025977;28;20807;-76
2023/11/05 15:54:19;;;;;;;7.40;2.08;;;10.70;99.90;;;;;;5011534;28;20091;-75
2023/11/05 15:56:45;;;;;;;13.75;2.85;;;10.70;99.90;;;;;;5027384;28;20121;-76
2023/11/05 15:59:11;;;;;;;8.05;1.15;;;10.70;99.90;;;;;;5029728;28;20497;-76
2023/11/05 16:01:36;;;;;;;5.05;1.48;;;10.70;99.90;;;;;;5016486;28;20037;-78
2023/11/05 16:04:02;;;;;;;6.53;1.38;;;10.70;99.90;;;;;;5028311;28;20080;-76
2023/11/05 16:06:28;;;;;;;19.10;2.67;;;10.70;99.90;;;;;;5012369;28;20029;-75
2023/11/05 16:08:55;;;;;;;9.25;1.55;;;10.70;99.90;;;;;;5012224;28;20051;-76
2023/11/05 16:11:20;;;;;;;3.45;0.90;;;10.70;99.90;;;;;;5010256;28;20034;-77
2023/11/05 16:13:46;;;;;;;9.27;0.95;;;10.70;99.90;;;;;;5027576;28;20453;-76
2023/11/05 16:16:12;;;;;;;25.92;2.33;;;10.80;99.90;;;;;;5027183;28;20053;-75
2023/11/05 16:18:38;;;;;;;10.07;1.23;;;10.80;99.90;;;;;;5028722;28;20049;-77
2023/11/05 16:21:04;;;;;;;7.35;1.27;;;10.80;99.90;;;;;;5009510;28;20152;-76
2023/11/05 16:23:30;;;;;;;5.38;0.95;;;10.80;99.90;;;;;;5032198;28;20163;-76
2023/11/05 16:25:55;;;;;;;13.68;1.30;;;10.80;99.90;;;;;;5032358;28;20042;-76
2023/11/05 16:28:24;;;;;;;19.48;1.27;;;10.80;99.90;;;;;;5028824;28;20029;-76
2023/11/05 16:30:50;;;;;;;7.22;1.00;;;10.80;99.90;;;;;;5026978;28;20057;-76
2023/11/05 16:33:16;;;;;;;6.22;1.15;;;10.80;99.90;;;;;;5010102;28;20500;-77
2023/11/05 16:35:41;;;;;;;5.10;0.90;;;10.80;99.90;;;;;;5010271;28;20124;-77
2023/11/05 16:38:08;;;;;;;3.30;0.80;;;10.80;99.90;;;;;;5017247;28;20434;-77
2023/11/05 16:40:35;;;;;;;6.72;1.10;;;10.80;99.90;;;;;;5028117;28;20091;-77
2023/11/05 16:43:02;;;;;;;5.03;1.33;;;10.80;99.90;;;;;;5026726;28;20028;-76
2023/11/05 16:45:28;;;;;;;8.82;1.10;;;10.80;99.90;;;;;;5028147;28;20120;-77
2023/11/05 16:47:54;;;;;;;7.38;2.03;;;10.80;99.90;;;;;;5025197;28;20040;-76
2023/11/05 16:50:20;;;;;;;6.20;0.93;;;10.80;99.90;;;;;;5027587;28;20038;-76
2023/11/05 16:52:45;;;;;;;5.72;0.77;;;10.70;99.90;;;;;;5027779;28;20116;-77